Time;durP1;ratioP1;P1;durP2;ratioP2;P2;SDS_P1;SDS_P2;PMS_P1;PMS_P2;Temp;Humidity;BMP_temperature;BMP_pressure;BME280_temperature;BME280_humidity;BME280_pressure;Samples;Min_cycle;Max_cycle;Signal;HPM_P1;HPM_P2
2022/02/01 00:02:04;;;;;;;17.27;2.10;;;;;;;4.32;97.15;102276.72;5096828;28;20058;-73
2022/02/01 00:05:01;;;;;;;13.63;1.95;;;;;;;4.28;98.06;102270.41;5100255;28;20028;-72
2022/02/01 00:07:27;;;;;;;14.52;2.05;;;;;;;4.26;98.64;102261.59;5098393;28;20395;-72
2022/02/01 00:12:52;;;;;;;14.75;2.65;;;;;;;4.24;99.15;102251.88;5101575;28;20074;-73
2022/02/01 00:18:14;;;;;;;14.07;2.05;;;;;;;4.22;99.08;102257.88;5095771;28;20032;-73
2022/02/01 00:33:08;;;;;;;18.55;2.25;;;;;;;4.24;98.57;102263.19;5100701;28;20026;-73
2022/02/01 00:37:22;;;;;;;9.43;1.27;;;;;;;3.97;100.00;102299.63;5107608;28;20042;-72
2022/02/01 00:39:55;;;;;;;7.35;2.65;;;;;;;3.87;100.00;102321.56;5095799;28;20121;-73
2022/02/01 00:42:20;;;;;;;8.05;1.45;;;;;;;3.83;100.00;102321.25;5101724;28;20019;-72
2022/02/01 00:44:46;;;;;;;15.57;1.63;;;;;;;3.79;100.00;102303.63;5093908;28;20028;-73
2022/02/01 00:47:11;;;;;;;12.48;1.95;;;;;;;3.75;100.00;102276.47;5074636;28;20428;-72
2022/02/01 00:49:37;;;;;;;13.85;1.83;;;;;;;3.76;100.00;102248.72;5097187;28;20167;-72
2022/02/01 00:52:03;;;;;;;11.35;1.65;;;;;;;3.71;100.00;102227.59;5078027;28;20119;-72
2022/02/01 00:54:29;;;;;;;9.75;1.85;;;;;;;3.64;100.00;102210.69;5101472;28;20103;-73
2022/02/01 00:56:55;;;;;;;23.35;2.10;;;;;;;3.59;100.00;102203.34;5099907;28;20435;-73
2022/02/01 00:59:20;;;;;;;11.32;1.65;;;;;;;3.63;100.00;102213.19;5094305;28;20088;-71
2022/02/01 01:01:45;;;;;;;17.30;2.33;;;;;;;3.67;100.00;102218.69;5094685;28;20032;-73
2022/02/01 01:04:11;;;;;;;15.18;2.03;;;;;;;3.75;100.00;102228.72;5102066;28;20032;-73
2022/02/01 01:06:36;;;;;;;20.85;1.90;;;;;;;3.87;100.00;102234.75;5093163;28;20032;-73
2022/02/01 01:09:03;;;;;;;10.73;1.98;;;;;;;4.01;100.00;102227.84;5101750;28;20027;-72
2022/02/01 01:11:28;;;;;;;19.52;1.92;;;;;;;4.14;100.00;102229.56;5100813;28;20031;-73
2022/02/01 01:14:31;;;;;;;16.35;2.05;;;;;;;4.21;100.00;102213.50;5078727;28;20024;-73
2022/02/01 01:43:54;;;;;;;19.50;2.50;;;;;;;4.70;96.25;102237.47;5101369;28;19918;-73
2022/02/01 01:54:22;;;;;;;12.38;1.70;;;;;;;4.83;95.98;102253.88;5101666;28;20113;-73
2022/02/01 01:56:49;;;;;;;15.80;2.28;;;;;;;4.84;95.26;102235.75;5086111;28;20543;-73
2022/02/01 01:59:14;;;;;;;18.45;2.33;;;;;;;4.83;95.66;102223.50;5101711;28;20463;-72
2022/02/01 02:01:42;;;;;;;13.60;2.20;;;;;;;4.85;94.58;102223.59;5082864;28;20032;-73
2022/02/01 02:04:08;;;;;;;11.73;1.65;;;;;;;4.84;95.34;102208.75;5083044;28;20074;-72
2022/02/01 02:06:34;;;;;;;20.52;2.35;;;;;;;4.84;94.72;102203.53;5106199;28;20024;-73
2022/02/01 02:09:03;;;;;;;7.93;1.90;;;;;;;4.84;94.70;102211.34;5104918;28;20038;-73
2022/02/01 02:11:42;;;;;;;13.00;2.30;;;;;;;4.83;94.72;102219.97;5100109;28;20020;-73
2022/02/01 02:14:25;;;;;;;10.30;2.17;;;;;;;4.84;94.74;102219.19;5098416;28;20032;-73
2022/02/01 02:16:53;;;;;;;14.57;2.00;;;;;;;4.88;94.71;102218.56;5090921;28;20035;-72
2022/02/01 02:19:19;;;;;;;16.10;1.92;;;;;;;4.88;94.52;102218.56;5099716;28;20082;-73
2022/02/01 02:21:52;;;;;;;14.93;2.03;;;;;;;4.91;94.67;102221.38;5088416;28;20395;-73
2022/02/01 02:24:18;;;;;;;17.33;2.20;;;;;;;4.91;94.76;102208.34;5078078;28;20096;-73
2022/02/01 02:26:45;;;;;;;16.20;2.47;;;;;;;4.92;95.09;102204.91;5096594;28;20023;-73
2022/02/01 02:29:11;;;;;;;21.27;2.55;;;;;;;4.94;94.37;102199.78;5077208;28;20089;-72
2022/02/01 02:31:38;;;;;;;12.65;1.83;;;;;;;4.95;94.55;102184.25;5099711;28;20043;-73
2022/02/01 02:34:12;;;;;;;15.07;2.20;;;;;;;4.95;94.95;102186.84;5095201;28;20387;-72
2022/02/01 02:36:44;;;;;;;15.27;2.83;;;;;;;5.04;94.96;102176.94;5083658;28;20023;-72
2022/02/01 02:39:35;;;;;;;21.00;3.00;;;;;;;5.07;94.43;102184.06;5102151;28;20028;-73
2022/02/01 02:42:15;;;;;;;12.23;2.05;;;;;;;5.12;93.80;102176.53;5108690;28;20042;-73
2022/02/01 02:47:29;;;;;;;16.52;2.03;;;;;;;5.15;93.12;102187.16;5096082;28;20039;-73
2022/02/01 02:49:55;;;;;;;10.98;3.00;;;;;;;5.19;93.66;102179.59;5106148;28;20056;-72
2022/02/01 02:52:23;;;;;;;13.40;2.50;;;;;;;5.22;93.50;102174.56;5080479;28;20034;-73
2022/02/01 02:54:48;;;;;;;21.58;3.92;;;;;;;5.25;93.76;102181.69;5102243;28;20039;-73
2022/02/01 02:57:14;;;;;;;12.35;2.25;;;;;;;5.26;93.30;102175.63;5094948;28;20032;-72
2022/02/01 02:59:39;;;;;;;16.08;1.92;;;;;;;5.24;93.68;102162.50;5082372;28;20365;-72
2022/02/01 03:02:06;;;;;;;10.52;2.15;;;;;;;5.22;94.14;102153.69;5105705;28;20459;-73
2022/02/01 03:04:33;;;;;;;11.73;1.70;;;;;;;5.23;94.01;102136.31;5099669;28;20071;-73
2022/02/01 03:07:00;;;;;;;15.85;2.33;;;;;;;5.27;94.17;102129.59;5094205;28;20111;-73
2022/02/01 03:09:25;;;;;;;12.10;1.90;;;;;;;5.24;94.09;102120.75;5105394;28;20450;-73
2022/02/01 03:11:53;;;;;;;13.63;1.90;;;;;;;5.24;93.86;102125.97;5099210;28;20031;-74
2022/02/01 03:21:59;;;;;;;13.52;2.50;;;;;;;5.27;94.58;102083.50;5103173;28;20457;-73
2022/02/01 03:24:25;;;;;;;19.13;3.20;;;;;;;5.29;94.93;102081.88;5100711;28;20031;-73
2022/02/01 03:26:50;;;;;;;21.75;2.42;;;;;;;5.26;95.18;102097.34;5097774;28;20016;-72
2022/02/01 03:29:15;;;;;;;10.98;2.38;;;;;;;5.26;94.95;102083.41;5096619;28;20493;-73
2022/02/01 03:31:41;;;;;;;13.20;3.53;;;;;;;5.25;94.35;102082.53;5100783;28;20016;-72
2022/02/01 03:34:07;;;;;;;15.32;1.90;;;;;;;5.25;94.94;102072.09;5091784;28;20392;-73
2022/02/01 03:36:32;;;;;;;13.43;3.05;;;;;;;5.22;94.86;102080.63;5104144;28;20077;-73
2022/02/01 03:38:58;;;;;;;18.65;2.45;;;;;;;5.18;95.62;102082.94;5095201;28;20059;-73
2022/02/01 03:41:24;;;;;;;13.73;3.70;;;;;;;5.25;95.96;102077.31;5094488;28;20032;-73
2022/02/01 03:43:50;;;;;;;16.67;2.58;;;;;;;5.28;95.45;102074.88;5097274;28;20028;-73
2022/02/01 03:46:16;;;;;;;17.08;2.83;;;;;;;5.29;96.81;102087.09;5103263;28;20460;-73
2022/02/01 03:48:42;;;;;;;11.65;2.30;;;;;;;5.29;96.23;102079.28;5078421;28;20408;-72
2022/02/01 03:51:08;;;;;;;12.52;2.92;;;;;;;5.32;97.49;102074.22;5095028;28;20038;-72
2022/02/01 03:53:34;;;;;;;8.63;2.20;;;;;;;5.36;98.00;102085.75;5102707;28;20071;-72
2022/02/01 03:55:59;;;;;;;21.02;3.08;;;;;;;5.38;97.95;102082.38;5102701;28;20072;-72
2022/02/01 03:58:25;;;;;;;17.13;3.08;;;;;;;5.40;99.38;102086.00;5093478;28;20471;-73
2022/02/01 04:00:50;;;;;;;18.48;3.53;;;;;;;5.42;99.97;102082.59;5096039;28;20368;-72
2022/02/01 04:03:15;;;;;;;23.63;3.92;;;;;;;5.46;100.00;102071.50;5100091;28;20367;-73
2022/02/01 04:05:41;;;;;;;16.52;2.65;;;;;;;5.46;100.00;102079.34;5095716;28;20104;-72
2022/02/01 04:08:06;;;;;;;16.60;2.92;;;;;;;5.48;100.00;102068.19;5093671;28;20480;-73
2022/02/01 04:10:31;;;;;;;21.60;3.20;;;;;;;5.49;100.00;102066.47;5079013;28;20444;-73
2022/02/01 04:12:58;;;;;;;19.95;3.55;;;;;;;5.53;100.00;102058.00;5102891;28;20034;-74
2022/02/01 04:15:26;;;;;;;27.27;4.10;;;;;;;5.51;100.00;102047.47;5097877;28;20042;-73
2022/02/01 04:17:53;;;;;;;20.55;3.58;;;;;;;5.50;100.00;102044.78;5094193;28;20062;-73
2022/02/01 04:20:18;;;;;;;24.40;4.80;;;;;;;5.51;100.00;102052.69;5101745;28;20036;-73
2022/02/01 04:22:44;;;;;;;15.77;3.75;;;;;;;5.54;100.00;102051.97;5077256;28;20035;-72
2022/02/01 04:25:09;;;;;;;35.03;6.22;;;;;;;5.57;100.00;102059.97;5093127;28;20028;-73
2022/02/01 04:27:35;;;;;;;13.07;3.75;;;;;;;5.55;100.00;102051.16;5096229;28;20102;-73
2022/02/01 04:30:07;;;;;;;23.50;3.75;;;;;;;5.58;100.00;102043.50;5106802;28;20032;-73
2022/02/01 04:32:34;;;;;;;20.60;4.22;;;;;;;5.61;100.00;102051.47;5098264;28;20517;-72
2022/02/01 04:34:59;;;;;;;19.52;4.45;;;;;;;5.64;100.00;102043.81;5107382;28;20433;-73
2022/02/01 04:37:28;;;;;;;19.33;4.57;;;;;;;5.64;100.00;102038.59;5094747;28;20020;-74
2022/02/01 04:39:54;;;;;;;24.70;4.32;;;;;;;5.65;100.00;102027.34;5103571;28;20091;-72
2022/02/01 04:42:20;;;;;;;21.35;5.53;;;;;;;5.58;100.00;102038.28;5095268;28;20032;-73
2022/02/01 04:44:45;;;;;;;20.95;4.97;;;;;;;5.56;100.00;102027.75;5078451;28;20024;-73
2022/02/01 04:47:10;;;;;;;15.80;4.57;;;;;;;5.58;100.00;102033.94;5094583;28;20024;-73
2022/02/01 04:49:36;;;;;;;23.75;4.55;;;;;;;5.62;100.00;102024.56;5094999;28;20036;-73
2022/02/01 04:52:01;;;;;;;15.68;4.22;;;;;;;5.62;100.00;102024.56;5083083;28;20035;-73
2022/02/01 04:54:27;;;;;;;22.95;4.88;;;;;;;5.65;100.00;102003.84;5080567;28;20105;-73
2022/02/01 04:56:52;;;;;;;20.30;4.55;;;;;;;5.60;100.00;102001.78;5060429;28;20468;-74
2022/02/01 04:59:18;;;;;;;26.02;5.28;;;;;;;5.64;100.00;101988.09;5077010;28;20044;-73
2022/02/01 05:01:43;;;;;;;21.85;5.43;;;;;;;5.60;100.00;101989.63;5068333;28;20086;-73
2022/02/01 05:04:09;;;;;;;24.13;4.80;;;;;;;5.62;100.00;101977.56;5079480;28;20052;-73
2022/02/01 05:06:35;;;;;;;27.08;5.30;;;;;;;5.57;100.00;101966.88;5061800;28;20028;-73
2022/02/01 05:09:01;;;;;;;15.93;4.55;;;;;;;5.58;100.00;101966.03;5058159;28;20024;-73
2022/02/01 05:11:27;;;;;;;21.75;5.55;;;;;;;5.56;100.00;101952.03;5062449;28;20062;-74
2022/02/01 05:14:07;;;;;;;19.73;4.68;;;;;;;5.63;100.00;101942.81;5063669;28;20136;-73
2022/02/01 05:16:45;;;;;;;24.90;4.68;;;;;;;5.61;100.00;101944.44;5078862;28;20390;-73
2022/02/01 05:19:17;;;;;;;19.92;4.32;;;;;;;5.62;100.00;101934.91;5077296;28;20445;-74
2022/02/01 05:21:44;;;;;;;20.48;5.00;;;;;;;5.62;100.00;101945.34;5076414;28;20040;-73
2022/02/01 05:24:12;;;;;;;24.38;5.57;;;;;;;5.61;100.00;101938.31;5064693;28;20027;-72
2022/02/01 05:26:37;;;;;;;24.60;5.45;;;;;;;5.66;100.00;101942.09;5080440;28;20028;-73
2022/02/01 05:29:02;;;;;;;25.98;5.63;;;;;;;5.68;100.00;101936.13;5087418;28;20032;-73
2022/02/01 05:31:29;;;;;;;23.27;6.22;;;;;;;5.71;100.00;101930.16;5085343;28;20516;-74
2022/02/01 05:33:54;;;;;;;27.83;6.68;;;;;;;5.76;100.00;101923.47;5059792;28;20052;-73
2022/02/01 05:36:20;;;;;;;26.23;5.85;;;;;;;5.76;100.00;101917.34;5081434;28;20075;-73
2022/02/01 05:38:49;;;;;;;25.17;6.40;;;;;;;5.77;100.00;101932.22;5088520;28;20029;-74
2022/02/01 05:41:14;;;;;;;21.45;6.65;;;;;;;5.80;100.00;101933.25;5061680;28;20371;-73
2022/02/01 05:43:42;;;;;;;23.05;6.80;;;;;;;5.83;100.00;101909.94;5067909;28;20031;-74
2022/02/01 05:46:09;;;;;;;23.05;5.93;;;;;;;5.84;100.00;101885.59;5064363;28;20028;-74
2022/02/01 05:48:35;;;;;;;21.05;6.85;;;;;;;5.83;100.00;101880.28;5078968;28;20035;-73
2022/02/01 05:51:00;;;;;;;19.42;6.65;;;;;;;5.83;100.00;101867.22;5067956;28;20056;-73
2022/02/01 05:53:26;;;;;;;21.17;6.00;;;;;;;5.82;100.00;101876.78;5076406;28;20051;-73
2022/02/01 05:55:52;;;;;;;24.85;5.55;;;;;;;5.83;100.00;101877.69;5081967;28;20016;-73
2022/02/01 05:58:19;;;;;;;22.08;6.72;;;;;;;5.81;100.00;101882.81;5060063;28;20052;-73
2022/02/01 06:00:45;;;;;;;24.42;8.40;;;;;;;5.88;100.00;101886.66;5082855;28;20043;-73
2022/02/01 06:03:10;;;;;;;15.20;5.90;;;;;;;5.86;100.00;101888.28;5086959;28;20036;-73
2022/02/01 06:05:36;;;;;;;26.30;6.95;;;;;;;5.85;100.00;101892.63;5080108;28;20029;-73
2022/02/01 06:08:02;;;;;;;26.65;6.45;;;;;;;5.84;100.00;101875.16;5092014;28;20027;-72
2022/02/01 06:10:28;;;;;;;19.63;6.80;;;;;;;5.88;100.00;101865.75;5068250;28;20502;-72
2022/02/01 06:12:54;;;;;;;23.67;6.85;;;;;;;5.89;100.00;101851.91;5076461;28;20036;-73
2022/02/01 06:15:23;;;;;;;28.48;6.57;;;;;;;5.88;100.00;101855.31;5061860;28;20036;-72
2022/02/01 06:17:49;;;;;;;14.90;5.35;;;;;;;5.88;100.00;101861.44;5084472;28;20111;-72
2022/02/01 06:20:15;;;;;;;26.38;6.63;;;;;;;5.88;100.00;101855.31;5064834;28;20118;-72
2022/02/01 06:22:41;;;;;;;30.00;5.75;;;;;;;5.81;100.00;101841.03;5081807;28;20040;-74
2022/02/01 06:25:08;;;;;;;19.40;5.53;;;;;;;5.81;100.00;101846.25;5061163;28;20164;-76
2022/02/01 06:27:33;;;;;;;27.30;5.20;;;;;;;5.86;100.00;101841.25;5079979;28;20024;-74
2022/02/01 06:29:59;;;;;;;19.00;5.57;;;;;;;5.88;100.00;101839.66;5079643;28;20023;-73
2022/02/01 06:32:31;;;;;;;26.08;6.15;;;;;;;5.86;100.00;101834.34;5084344;28;20499;-76
2022/02/01 06:34:56;;;;;;;23.52;5.07;;;;;;;5.90;100.00;101835.38;5079735;28;20032;-72
2022/02/01 06:37:22;;;;;;;17.92;4.50;;;;;;;5.92;100.00;101836.38;5079442;28;20025;-73
2022/02/01 06:39:47;;;;;;;20.95;5.43;;;;;;;5.96;100.00;101835.72;5081400;28;20468;-72
2022/02/01 06:42:12;;;;;;;18.85;4.68;;;;;;;6.03;100.00;101834.34;5079468;28;20031;-73
2022/02/01 06:44:39;;;;;;;28.90;4.97;;;;;;;6.07;100.00;101834.56;5083261;28;20025;-73
2022/02/01 06:47:05;;;;;;;16.95;4.97;;;;;;;6.08;100.00;101828.53;5086054;28;20496;-72
2022/02/01 06:49:30;;;;;;;21.80;5.20;;;;;;;6.11;100.00;101816.44;5086855;28;20123;-74
2022/02/01 06:51:56;;;;;;;21.55;4.43;;;;;;;6.13;100.00;101809.56;5084385;28;20426;-73
2022/02/01 06:54:21;;;;;;;23.42;4.40;;;;;;;6.13;100.00;101810.50;5097775;28;20075;-73
2022/02/01 06:56:46;;;;;;;25.52;4.78;;;;;;;6.14;100.00;101803.53;5100694;28;20031;-73
2022/02/01 06:59:11;;;;;;;17.48;4.85;;;;;;;6.16;100.00;101805.41;5099949;28;20032;-71
2022/02/01 07:01:37;;;;;;;13.13;4.20;;;;;;;6.13;100.00;101788.66;5096834;28;20080;-71
2022/02/01 07:04:03;;;;;;;21.08;3.92;;;;;;;6.10;100.00;101789.41;5101164;27;20490;-72
2022/02/01 07:06:33;;;;;;;14.98;4.13;;;;;;;6.10;100.00;101793.75;5110893;28;20038;-72
2022/02/01 07:09:01;;;;;;;12.23;3.50;;;;;;;6.05;100.00;101786.56;5103529;28;20698;-72
2022/02/01 07:11:26;;;;;;;11.75;3.22;;;;;;;6.05;100.00;101786.56;5097754;28;20514;-73
2022/02/01 07:13:52;;;;;;;7.97;3.40;;;;;;;6.07;100.00;101784.91;5104042;28;20024;-73
2022/02/01 07:16:18;;;;;;;11.60;3.60;;;;;;;6.04;100.00;101779.56;5102692;28;20034;-73
2022/02/01 07:18:45;;;;;;;11.15;3.50;;;;;;;6.05;100.00;101786.56;5098765;28;20027;-73
2022/02/01 07:21:10;;;;;;;7.07;3.20;;;;;;;6.05;100.00;101780.44;5107384;28;20178;-73
2022/02/01 07:23:36;;;;;;;13.02;3.53;;;;;;;6.02;100.00;101789.03;5100396;28;20102;-73
2022/02/01 07:26:02;;;;;;;9.57;3.28;;;;;;;6.00;100.00;101777.59;5084920;28;20036;-74
2022/02/01 07:28:30;;;;;;;7.80;3.20;;;;;;;5.99;100.00;101770.56;5084155;28;20028;-74
2022/02/01 07:30:56;;;;;;;6.95;3.67;;;;;;;6.03;100.00;101766.41;5099682;28;20118;-75
2022/02/01 07:33:23;;;;;;;6.13;3.58;;;;;;;6.05;100.00;101760.44;5098443;28;20047;-76
2022/02/01 07:35:49;;;;;;;8.48;3.22;;;;;;;6.05;100.00;101759.53;5081844;28;20115;-73
2022/02/01 07:38:18;;;;;;;7.78;2.75;;;;;;;6.10;100.00;101751.94;5108873;28;20032;-73
2022/02/01 07:40:45;;;;;;;7.78;2.95;;;;;;;6.10;100.00;101752.81;5094947;28;20030;-74
2022/02/01 07:43:10;;;;;;;5.13;2.92;;;;;;;6.12;100.00;101739.81;5082957;28;20190;-74
2022/02/01 07:45:38;;;;;;;9.23;3.15;;;;;;;6.10;100.00;101744.09;5097618;27;20020;-73
2022/02/01 07:48:04;;;;;;;6.53;3.03;;;;;;;6.12;100.00;101724.16;5103570;27;20026;-74
2022/02/01 07:50:32;;;;;;;9.80;3.45;;;;;;;6.15;100.00;101719.97;5103689;28;20044;-74
2022/02/01 07:52:59;;;;;;;9.88;3.78;;;;;;;6.18;100.00;101721.84;5105737;27;20110;-73
2022/02/01 07:55:24;;;;;;;14.52;4.22;;;;;;;6.17;100.00;101720.97;5106575;27;20023;-73
2022/02/01 07:57:50;;;;;;;14.85;3.70;;;;;;;6.21;100.00;101719.38;5112042;27;20513;-73
2022/02/01 08:00:15;;;;;;;13.05;4.03;;;;;;;6.22;100.00;101710.72;5105188;27;20122;-73
2022/02/01 08:02:41;;;;;;;23.02;5.30;;;;;;;6.26;100.00;101722.22;5101476;27;20370;-73
2022/02/01 08:05:07;;;;;;;14.32;4.38;;;;;;;6.28;100.00;101720.56;5091453;28;20482;-73
2022/02/01 08:07:33;;;;;;;17.95;4.40;;;;;;;6.26;100.00;101712.66;5084730;28;20056;-73
2022/02/01 08:10:01;;;;;;;12.93;3.63;;;;;;;6.28;100.00;101689.22;5108367;27;20024;-74
2022/02/01 08:17:46;;;;;;;12.27;3.65;;;;;;;6.31;100.00;101705.03;5109471;27;20028;-75
2022/02/01 08:20:15;;;;;;;15.48;4.80;;;;;;;6.33;100.00;101704.28;5085235;28;20031;-74
2022/02/01 08:25:15;;;;;;;14.40;4.28;;;;;;;6.34;100.00;101693.00;5108084;27;20115;-73
2022/02/01 08:27:41;;;;;;;20.33;4.40;;;;;;;6.38;100.00;101692.34;5086754;28;20677;-76
2022/02/01 08:30:09;;;;;;;12.82;4.35;;;;;;;6.40;100.00;101680.25;5077810;28;20486;-76
2022/02/01 08:32:35;;;;;;;23.63;4.00;;;;;;;6.43;100.00;101678.56;5079272;28;20055;-76
2022/02/01 08:35:01;;;;;;;14.68;3.30;;;;;;;6.40;100.00;101675.00;5090155;28;20502;-76
2022/02/01 08:37:26;;;;;;;8.85;3.25;;;;;;;6.41;100.00;101684.63;5078300;28;20024;-77
2022/02/01 08:39:52;;;;;;;9.38;3.17;;;;;;;6.41;100.00;101654.97;5081451;28;20401;-77
2022/02/01 08:42:18;;;;;;;14.80;3.80;;;;;;;6.40;100.00;101637.50;5113773;28;20111;-76
2022/02/01 08:44:44;;;;;;;12.68;3.28;;;;;;;6.44;100.00;101628.09;5110529;28;20104;-76
2022/02/01 08:47:11;;;;;;;17.05;3.53;;;;;;;6.42;100.00;101635.88;5088413;28;20426;-76
2022/02/01 08:49:37;;;;;;;10.55;3.65;;;;;;;6.42;100.00;101620.19;5101694;28;20067;-76
2022/02/01 08:52:07;;;;;;;12.52;3.30;;;;;;;6.45;100.00;101616.81;5103085;28;21591;-76
2022/02/01 08:54:34;;;;;;;12.23;3.47;;;;;;;6.46;100.00;101621.19;5095541;28;20032;-77
2022/02/01 08:59:45;;;;;;;12.25;3.55;;;;;;;6.48;100.00;101627.41;5100195;28;20048;-77
2022/02/01 09:02:15;;;;;;;17.48;5.10;;;;;;;6.48;100.00;101601.25;5099300;28;20120;-77
2022/02/01 09:04:40;;;;;;;10.18;4.50;;;;;;;6.49;100.00;101606.56;5107695;28;20073;-77
2022/02/01 09:07:05;;;;;;;14.30;4.72;;;;;;;6.49;100.00;101613.50;5106744;28;20028;-77
2022/02/01 09:09:32;;;;;;;19.33;4.80;;;;;;;6.51;100.00;101604.91;5108256;28;20038;-77
2022/02/01 09:11:58;;;;;;;13.10;4.20;;;;;;;6.52;100.00;101605.81;5091592;28;20061;-77
2022/02/01 09:14:24;;;;;;;16.80;5.32;;;;;;;6.53;100.00;101597.13;5111859;28;20031;-77
2022/02/01 09:16:50;;;;;;;23.75;5.40;;;;;;;6.56;100.00;101576.34;5096596;28;20364;-76
2022/02/01 09:19:17;;;;;;;15.07;5.13;;;;;;;6.58;100.00;101562.53;5086955;28;20028;-77
2022/02/01 09:21:44;;;;;;;26.23;5.65;;;;;;;6.60;100.00;101556.47;5093137;28;20055;-76
2022/02/01 09:24:09;;;;;;;18.98;5.07;;;;;;;6.62;100.00;101524.34;5111753;28;20531;-76
2022/02/01 09:26:35;;;;;;;26.30;5.85;;;;;;;6.63;100.00;101520.88;5097319;28;20036;-76
2022/02/01 09:29:00;;;;;;;29.65;6.72;;;;;;;6.64;100.00;101547.94;5087395;28;20462;-76
2022/02/01 09:31:26;;;;;;;22.27;5.57;;;;;;;6.68;100.00;101535.03;5114480;28;20024;-74
2022/02/01 09:33:51;;;;;;;29.25;6.70;;;;;;;6.67;100.00;101562.03;5108200;28;20023;-77
2022/02/01 09:36:17;;;;;;;20.60;6.93;;;;;;;6.67;100.00;101537.59;5100234;28;20039;-78
2022/02/01 09:38:43;;;;;;;18.83;5.70;;;;;;;6.70;100.00;101520.34;5100164;28;20050;-77
2022/02/01 09:41:08;;;;;;;21.23;6.75;;;;;;;6.72;100.00;101521.28;5075822;28;20058;-76
2022/02/01 09:43:34;;;;;;;35.05;5.95;;;;;;;6.75;100.00;101524.06;5094974;28;20040;-75
2022/02/01 09:46:00;;;;;;;30.63;7.28;;;;;;;6.75;100.00;101513.59;5081958;28;20024;-76
2022/02/01 09:48:26;;;;;;;34.78;6.35;;;;;;;6.80;100.00;101523.34;5107444;28;20050;-76
2022/02/01 09:50:51;;;;;;;22.90;6.68;;;;;;;6.82;100.00;101516.44;5078960;28;20032;-76
2022/02/01 09:53:18;;;;;;;38.33;7.88;;;;;;;6.84;100.00;101504.34;5084976;28;20069;-77
2022/02/01 09:55:44;;;;;;;30.85;7.03;;;;;;;6.83;100.00;101503.44;5103846;27;20020;-77
2022/02/01 09:58:13;;;;;;;38.63;7.63;;;;;;;6.87;100.00;101500.09;5112299;27;20033;-77
2022/02/01 10:00:44;;;;;;;32.90;6.47;;;;;;;6.88;100.00;101501.03;5086535;28;20054;-76
2022/02/01 10:03:17;;;;;;;34.28;7.43;;;;;;;6.91;100.00;101517.72;5107234;27;20047;-76
2022/02/01 10:05:44;;;;;;;27.45;7.43;;;;;;;6.94;100.00;101505.63;5110867;27;20034;-75
2022/02/01 10:08:13;;;;;;;29.80;8.57;;;;;;;6.97;100.00;101510.97;5081740;28;20027;-76
2022/02/01 10:10:39;;;;;;;31.02;7.20;;;;;;;7.00;100.00;101506.75;5104922;27;20058;-76
2022/02/01 10:13:14;;;;;;;30.95;7.38;;;;;;;7.04;100.00;101508.69;5101434;28;20028;-75
2022/02/01 10:15:53;;;;;;;29.42;6.93;;;;;;;7.07;100.00;101521.00;5087048;28;20054;-75
2022/02/01 10:18:26;;;;;;;27.35;7.30;;;;;;;7.12;100.00;101523.81;5105714;27;20118;-76
2022/02/01 10:20:51;;;;;;;32.83;7.00;;;;;;;7.13;100.00;101509.88;5112083;27;20640;-75
2022/02/01 10:23:16;;;;;;;32.03;7.22;;;;;;;7.21;100.00;101513.72;5095726;28;20048;-75
2022/02/01 10:25:58;;;;;;;25.33;6.68;;;;;;;7.24;100.00;101512.13;5099559;27;20027;-76
2022/02/01 10:28:25;;;;;;;32.88;6.75;;;;;;;7.32;100.00;101514.16;5094410;27;20060;-75
2022/02/01 10:30:50;;;;;;;31.60;6.95;;;;;;;7.34;100.00;101513.38;5106785;27;20402;-74
2022/02/01 10:36:36;;;;;;;26.13;5.75;;;;;;;7.41;100.00;101485.72;5065188;27;20093;-75
2022/02/01 10:39:02;;;;;;;31.00;5.95;;;;;;;7.43;100.00;101490.19;5103244;27;20028;-74
2022/02/01 10:41:28;;;;;;;25.00;5.65;;;;;;;7.47;100.00;101498.16;5104878;27;20023;-74
2022/02/01 10:43:53;;;;;;;34.55;5.93;;;;;;;7.48;100.00;101497.34;5106224;27;20038;-74
2022/02/01 10:46:21;;;;;;;29.55;4.90;;;;;;;7.52;100.00;101483.53;5104898;27;20032;-75
2022/02/01 10:48:54;;;;;;;28.05;4.88;;;;;;;7.53;100.00;101506.28;5096931;28;20027;-75
2022/02/01 10:51:24;;;;;;;32.40;4.88;;;;;;;7.57;100.00;101484.63;5097825;28;20058;-76
2022/02/01 10:53:56;;;;;;;19.85;5.03;;;;;;;7.57;100.00;101492.47;5083512;27;20069;-77
2022/02/01 10:56:23;;;;;;;29.77;5.38;;;;;;;7.63;100.00;101500.56;5083182;28;20123;-76
2022/02/01 10:58:50;;;;;;;23.83;5.13;;;;;;;7.68;100.00;101506.88;5087198;28;20020;-76
2022/02/01 11:01:18;;;;;;;36.97;5.32;;;;;;;7.72;100.00;101498.28;5098077;27;20031;-76
2022/02/01 11:03:46;;;;;;;34.17;5.80;;;;;;;7.78;100.00;101495.00;5098488;28;20020;-76
2022/02/01 11:06:13;;;;;;;32.78;4.53;;;;;;;7.83;100.00;101489.97;5105019;27;20043;-76
2022/02/01 11:08:41;;;;;;;20.75;4.85;;;;;;;7.92;100.00;101501.69;5090788;28;20044;-77
2022/02/01 11:11:06;;;;;;;17.42;4.05;;;;;;;8.00;100.00;101485.34;5081909;28;20028;-76
2022/02/01 11:13:44;;;;;;;19.73;5.10;;;;;;;8.04;100.00;101500.34;5087137;28;20039;-75
2022/02/01 11:16:13;;;;;;;20.10;4.10;;;;;;;8.05;100.00;101500.41;5082553;27;20030;-76
2022/02/01 11:18:38;;;;;;;20.25;4.63;;;;;;;8.10;100.00;101487.50;5078066;28;20024;-76
2022/02/01 11:21:15;;;;;;;22.17;5.07;;;;;;;8.13;100.00;101476.22;5100476;27;20464;-75
2022/02/01 11:23:50;;;;;;;21.95;4.30;;;;;;;8.16;100.00;101481.56;5105635;27;20031;-75
2022/02/01 11:26:28;;;;;;;24.40;5.15;;;;;;;8.19;100.00;101489.53;5102325;27;20027;-76
2022/02/01 11:30:01;;;;;;;21.33;4.05;;;;;;;8.17;100.00;101488.59;5106500;27;20024;-74
2022/02/01 11:31:49;;;;;;;21.40;3.97;;;;;;;8.19;100.00;101492.16;5097573;27;20038;-76
2022/02/01 11:34:24;;;;;;;29.30;5.93;;;;;;;8.20;100.00;101476.50;5112010;27;20035;-76
2022/02/01 11:37:03;;;;;;;18.25;4.45;;;;;;;8.19;100.00;101471.19;5109163;27;20039;-75
2022/02/01 11:39:29;;;;;;;25.55;5.45;;;;;;;8.20;100.00;101465.13;5100273;27;20020;-75
2022/02/01 11:41:56;;;;;;;35.03;5.57;;;;;;;8.17;100.00;101452.78;5112883;27;20047;-75
2022/02/01 11:44:26;;;;;;;25.85;5.05;;;;;;;8.18;100.00;101437.94;5111406;27;20039;-75
2022/02/01 11:47:17;;;;;;;25.63;5.07;;;;;;;8.21;100.00;101436.34;5104126;27;20100;-75
2022/02/01 11:49:59;;;;;;;23.13;4.25;;;;;;;8.21;100.00;101417.97;5084404;28;20499;-74
2022/02/01 11:52:28;;;;;;;23.17;4.35;;;;;;;8.22;100.00;101425.00;5111614;27;20431;-74
2022/02/01 11:55:03;;;;;;;17.38;3.42;;;;;;;8.32;100.00;101420.09;5077742;28;20035;-75
2022/02/01 11:57:30;;;;;;;23.60;4.65;;;;;;;8.41;100.00;101437.03;5099197;27;20028;-76
2022/02/01 12:00:14;;;;;;;21.25;4.28;;;;;;;8.49;100.00;101437.34;5097964;27;20115;-76
2022/02/01 12:02:49;;;;;;;19.88;4.30;;;;;;;8.50;100.00;101440.84;5102345;27;20032;-75
2022/02/01 12:05:26;;;;;;;22.77;4.13;;;;;;;8.56;100.00;101425.31;5082955;28;20069;-74
2022/02/01 12:08:08;;;;;;;17.38;4.28;;;;;;;8.60;100.00;101429.84;5097675;27;20420;-75
2022/02/01 12:10:45;;;;;;;11.18;3.50;;;;;;;8.56;100.00;101426.22;5086428;28;20071;-74
2022/02/01 12:13:12;;;;;;;18.10;4.00;;;;;;;8.60;100.00;101407.13;5098326;28;20107;-74
2022/02/01 12:15:40;;;;;;;13.75;3.63;;;;;;;8.68;100.00;101398.59;5103007;27;20034;-75
2022/02/01 12:18:42;;;;;;;21.20;3.85;;;;;;;8.79;100.00;101392.00;5092170;27;20027;-75
2022/02/01 12:21:28;;;;;;;14.68;3.72;;;;;;;8.88;100.00;101386.16;5078421;28;20028;-74
2022/02/01 12:23:55;;;;;;;15.32;3.83;;;;;;;8.88;100.00;101376.53;5102193;27;20016;-75
2022/02/01 12:26:28;;;;;;;18.30;4.32;;;;;;;8.98;100.00;101390.84;5096979;27;20028;-74
2022/02/01 12:28:55;;;;;;;18.17;4.57;;;;;;;8.99;100.00;101397.88;5097286;27;20067;-75
2022/02/01 12:31:22;;;;;;;16.85;3.25;;;;;;;8.94;100.00;101386.34;5079827;28;20036;-75
2022/02/01 12:33:52;;;;;;;14.02;3.20;;;;;;;8.94;100.00;101397.72;5098347;27;20528;-75
2022/02/01 12:36:24;;;;;;;20.70;4.80;;;;;;;9.00;100.00;101385.66;5100686;27;20142;-74
2022/02/01 12:38:58;;;;;;;14.27;3.28;;;;;;;8.97;100.00;101389.06;5101622;28;20032;-74
2022/02/01 12:41:30;;;;;;;14.48;3.97;;;;;;;8.97;100.00;101393.41;5078492;28;20036;-74
2022/02/01 12:46:42;;;;;;;14.00;3.45;;;;;;;9.11;100.00;101364.16;5102943;27;20039;-74